sensor_id;sensor_type;location;lat;lon;timestamp;pressure;altitude;pressure_sealevel;temperature;humidity
74921;BME280;63483;47.384;8.860;2022-11-15T00:01:59;94468.50;;;3.60;51.17
74921;BME280;63483;47.384;8.860;2022-11-15T00:04:24;94470.44;;;3.58;51.43
74921;BME280;63483;47.384;8.860;2022-11-15T00:06:50;94466.34;;;3.55;51.42
74921;BME280;63483;47.384;8.860;2022-11-15T00:09:15;94466.50;;;3.53;51.38
74921;BME280;63483;47.384;8.860;2022-11-15T00:11:40;94465.69;;;3.53;51.57
74921;BME280;63483;47.384;8.860;2022-11-15T00:14:05;94462.97;;;3.54;51.47
74921;BME280;63483;47.384;8.860;2022-11-15T00:16:31;94470.59;;;3.56;51.29
74921;BME280;63483;47.384;8.860;2022-11-15T00:18:56;94466.91;;;3.59;51.55
74921;BME280;63483;47.384;8.860;2022-11-15T00:21:23;94463.47;;;3.58;51.38
74921;BME280;63483;47.384;8.860;2022-11-15T00:23:48;94470.28;;;3.59;51.52
74921;BME280;63483;47.384;8.860;2022-11-15T00:26:14;94461.03;;;3.57;51.35
74921;BME280;63483;47.384;8.860;2022-11-15T00:28:41;94459.56;;;3.54;50.66
74921;BME280;63483;47.384;8.860;2022-11-15T00:31:09;94456.28;;;3.52;50.72
74921;BME280;63483;47.384;8.860;2022-11-15T00:33:36;94457.38;;;3.49;50.86
74921;BME280;63483;47.384;8.860;2022-11-15T00:36:06;94459.94;;;3.49;50.99
74921;BME280;63483;47.384;8.860;2022-11-15T00:38:35;94459.16;;;3.49;51.08
74921;BME280;63483;47.384;8.860;2022-11-15T00:41:01;94459.16;;;3.49;51.35
74921;BME280;63483;47.384;8.860;2022-11-15T00:43:27;94467.06;;;3.47;51.26
74921;BME280;63483;47.384;8.860;2022-11-15T00:45:52;94457.50;;;3.48;51.10
74921;BME280;63483;47.384;8.860;2022-11-15T00:48:17;94459.16;;;3.49;50.99
74921;BME280;63483;47.384;8.860;2022-11-15T00:50:43;94448.78;;;3.49;51.10
74921;BME280;63483;47.384;8.860;2022-11-15T00:53:08;94452.31;;;3.48;50.96
74921;BME280;63483;47.384;8.860;2022-11-15T00:55:34;94447.44;;;3.45;50.84
74921;BME280;63483;47.384;8.860;2022-11-15T00:57:59;94449.34;;;3.43;51.37
74921;BME280;63483;47.384;8.860;2022-11-15T01:00:25;94441.59;;;3.43;51.14
74921;BME280;63483;47.384;8.860;2022-11-15T01:02:50;94442.25;;;3.45;51.10
74921;BME280;63483;47.384;8.860;2022-11-15T01:05:15;94434.47;;;3.45;51.31
74921;BME280;63483;47.384;8.860;2022-11-15T01:07:41;94435.19;;;3.47;51.12
74921;BME280;63483;47.384;8.860;2022-11-15T01:10:07;94435.97;;;3.47;51.26
74921;BME280;63483;47.384;8.860;2022-11-15T01:12:32;94433.25;;;3.49;51.32
74921;BME280;63483;47.384;8.860;2022-11-15T01:14:57;94432.59;;;3.47;51.15
74921;BME280;63483;47.384;8.860;2022-11-15T01:17:23;94432.59;;;3.47;51.09
74921;BME280;63483;47.384;8.860;2022-11-15T01:19:48;94439.38;;;3.48;51.25
74921;BME280;63483;47.384;8.860;2022-11-15T01:22:14;94448.78;;;3.49;51.06
74921;BME280;63483;47.384;8.860;2022-11-15T01:24:39;94440.06;;;3.50;51.48
74921;BME280;63483;47.384;8.860;2022-11-15T01:27:05;94440.06;;;3.50;51.46
74921;BME280;63483;47.384;8.860;2022-11-15T01:29:30;94442.66;;;3.50;51.38
74921;BME280;63483;47.384;8.860;2022-11-15T01:31:55;94436.50;;;3.51;51.68
74921;BME280;63483;47.384;8.860;2022-11-15T01:34:21;94440.75;;;3.52;51.65
74921;BME280;63483;47.384;8.860;2022-11-15T01:36:46;94429.44;;;3.53;51.81
74921;BME280;63483;47.384;8.860;2022-11-15T01:39:12;94427.50;;;3.55;51.99
74921;BME280;63483;47.384;8.860;2022-11-15T01:41:37;94415.91;;;3.59;52.00
74921;BME280;63483;47.384;8.860;2022-11-15T01:46:56;94402.97;;;3.59;52.23
74921;BME280;63483;47.384;8.860;2022-11-15T01:49:23;94400.22;;;3.61;52.23
74921;BME280;63483;47.384;8.860;2022-11-15T01:51:49;94390.69;;;3.61;52.30
74921;BME280;63483;47.384;8.860;2022-11-15T01:54:17;94378.41;;;3.63;52.45
74921;BME280;63483;47.384;8.860;2022-11-15T01:56:52;94375.69;;;3.65;52.55
74921;BME280;63483;47.384;8.860;2022-11-15T01:59:19;94381.66;;;3.65;52.42
74921;BME280;63483;47.384;8.860;2022-11-15T02:01:44;94381.38;;;3.68;52.34
74921;BME280;63483;47.384;8.860;2022-11-15T02:04:13;94384.66;;;3.70;52.50
74921;BME280;63483;47.384;8.860;2022-11-15T02:06:41;94371.00;;;3.68;52.24
74921;BME280;63483;47.384;8.860;2022-11-15T02:09:07;94375.25;;;3.69;52.16
74921;BME280;63483;47.384;8.860;2022-11-15T02:11:33;94377.84;;;3.69;52.52
74921;BME280;63483;47.384;8.860;2022-11-15T02:14:00;94370.88;;;3.70;52.62
74921;BME280;63483;47.384;8.860;2022-11-15T02:16:47;94364.75;;;3.71;52.74
74921;BME280;63483;47.384;8.860;2022-11-15T02:30:43;94351.91;;;3.79;52.49
74921;BME280;63483;47.384;8.860;2022-11-15T02:33:48;94344.94;;;3.80;52.63
74921;BME280;63483;47.384;8.860;2022-11-15T02:36:26;94337.16;;;3.80;52.74
74921;BME280;63483;47.384;8.860;2022-11-15T02:42:14;94343.56;;;3.76;52.90
74921;BME280;63483;47.384;8.860;2022-11-15T02:45:04;94329.28;;;3.71;53.18
74921;BME280;63483;47.384;8.860;2022-11-15T02:47:34;94338.53;;;3.74;53.34
74921;BME280;63483;47.384;8.860;2022-11-15T02:50:08;94334.84;;;3.77;53.44
74921;BME280;63483;47.384;8.860;2022-11-15T02:52:35;94330.97;;;2.68;50.50
74921;BME280;63483;47.384;8.860;2022-11-15T02:55:01;94323.25;;;1.80;49.61
74921;BME280;63483;47.384;8.860;2022-11-15T02:57:51;94324.34;;;1.37;51.77
74921;BME280;63483;47.384;8.860;2022-11-15T03:00:19;94326.50;;;0.80;50.34
74921;BME280;63483;47.384;8.860;2022-11-15T03:05:51;94324.75;;;0.17;52.24
74921;BME280;63483;47.384;8.860;2022-11-15T03:08:45;94329.06;;;1.01;59.02
74921;BME280;63483;47.384;8.860;2022-11-15T03:11:17;94320.56;;;0.37;58.04
74921;BME280;63483;47.384;8.860;2022-11-15T03:13:59;94315.59;;;0.24;56.65
74921;BME280;63483;47.384;8.860;2022-11-15T03:19:14;94311.50;;;-0.11;55.00
74921;BME280;63483;47.384;8.860;2022-11-15T03:21:43;94309.03;;;-0.01;55.89
74921;BME280;63483;47.384;8.860;2022-11-15T03:24:12;94310.06;;;-0.36;52.94
74921;BME280;63483;47.384;8.860;2022-11-15T03:26:40;94312.53;;;-0.46;55.17
74921;BME280;63483;47.384;8.860;2022-11-15T03:29:15;94305.41;;;-0.54;53.47
74921;BME280;63483;47.384;8.860;2022-11-15T03:31:46;94304.75;;;-0.67;52.91
74921;BME280;63483;47.384;8.860;2022-11-15T03:36:45;94301.47;;;-0.80;52.01
74921;BME280;63483;47.384;8.860;2022-11-15T03:39:12;94304.66;;;-0.88;51.08
74921;BME280;63483;47.384;8.860;2022-11-15T03:44:40;94293.69;;;-0.35;52.10
74921;BME280;63483;47.384;8.860;2022-11-15T03:47:11;94295.72;;;-0.18;49.68
74921;BME280;63483;47.384;8.860;2022-11-15T03:49:42;94296.06;;;0.21;50.62
74921;BME280;63483;47.384;8.860;2022-11-15T03:52:10;94293.81;;;0.49;49.11
74921;BME280;63483;47.384;8.860;2022-11-15T03:54:36;94282.00;;;0.78;51.01
74921;BME280;63483;47.384;8.860;2022-11-15T03:57:02;94287.44;;;1.15;54.30
74921;BME280;63483;47.384;8.860;2022-11-15T03:59:28;94286.75;;;1.44;54.24
74921;BME280;63483;47.384;8.860;2022-11-15T04:01:53;94288.84;;;1.70;54.79
74921;BME280;63483;47.384;8.860;2022-11-15T04:04:18;94289.56;;;1.91;54.46
74921;BME280;63483;47.384;8.860;2022-11-15T04:06:44;94285.31;;;2.10;54.49
74921;BME280;63483;47.384;8.860;2022-11-15T04:09:09;94282.06;;;2.27;54.82
74921;BME280;63483;47.384;8.860;2022-11-15T04:11:34;94285.97;;;2.41;54.46
74921;BME280;63483;47.384;8.860;2022-11-15T04:14:00;94293.44;;;2.54;54.70
74921;BME280;63483;47.384;8.860;2022-11-15T04:16:25;94287.44;;;2.63;54.50
74921;BME280;63483;47.384;8.860;2022-11-15T04:18:50;94281.44;;;2.73;54.06
74921;BME280;63483;47.384;8.860;2022-11-15T04:21:35;94285.78;;;2.82;54.47
74921;BME280;63483;47.384;8.860;2022-11-15T04:24:19;94291.31;;;2.87;54.02
74921;BME280;63483;47.384;8.860;2022-11-15T04:26:44;94294.31;;;2.92;54.49
74921;BME280;63483;47.384;8.860;2022-11-15T04:29:10;94287.91;;;2.96;54.27
74921;BME280;63483;47.384;8.860;2022-11-15T04:31:54;94284.34;;;2.97;54.64
74921;BME280;63483;47.384;8.860;2022-11-15T04:34:19;94289.25;;;3.00;54.39
74921;BME280;63483;47.384;8.860;2022-11-15T04:36:44;94282.69;;;3.06;53.97
74921;BME280;63483;47.384;8.860;2022-11-15T04:39:28;94282.53;;;3.08;53.82
74921;BME280;63483;47.384;8.860;2022-11-15T04:41:53;94279.66;;;3.11;53.83
74921;BME280;63483;47.384;8.860;2022-11-15T04:44:19;94279.66;;;3.11;53.53
74921;BME280;63483;47.384;8.860;2022-11-15T04:46:44;94276.13;;;3.12;53.12
74921;BME280;63483;47.384;8.860;2022-11-15T04:49:09;94283.75;;;3.13;53.47
74921;BME280;63483;47.384;8.860;2022-11-15T04:51:35;94285.53;;;3.13;53.20
74921;BME280;63483;47.384;8.860;2022-11-15T04:54:00;94279.09;;;3.17;53.19
74921;BME280;63483;47.384;8.860;2022-11-15T04:56:25;94279.94;;;3.17;53.03
74921;BME280;63483;47.384;8.860;2022-11-15T04:58:51;94275.69;;;3.16;52.74
74921;BME280;63483;47.384;8.860;2022-11-15T05:01:17;94273.91;;;3.17;52.73
74921;BME280;63483;47.384;8.860;2022-11-15T05:03:43;94273.41;;;3.13;52.88
74921;BME280;63483;47.384;8.860;2022-11-15T05:06:27;94270.97;;;3.12;52.89
74921;BME280;63483;47.384;8.860;2022-11-15T05:08:53;94264.00;;;3.12;52.83
74921;BME280;63483;47.384;8.860;2022-11-15T05:11:18;94274.22;;;3.14;52.73
74921;BME280;63483;47.384;8.860;2022-11-15T05:13:45;94270.66;;;3.15;52.65
74921;BME280;63483;47.384;8.860;2022-11-15T05:16:10;94274.50;;;3.11;52.55
74921;BME280;63483;47.384;8.860;2022-11-15T05:18:36;94263.19;;;3.12;52.36
74921;BME280;63483;47.384;8.860;2022-11-15T05:21:10;94267.41;;;3.13;52.36
74921;BME280;63483;47.384;8.860;2022-11-15T05:23:36;94252.69;;;3.13;52.16
74921;BME280;63483;47.384;8.860;2022-11-15T05:26:02;94257.72;;;3.15;52.14
74921;BME280;63483;47.384;8.860;2022-11-15T05:28:28;94250.78;;;3.15;52.17
74921;BME280;63483;47.384;8.860;2022-11-15T05:31:00;94248.31;;;3.14;52.11
74921;BME280;63483;47.384;8.860;2022-11-15T05:33:26;94243.44;;;3.11;52.18
74921;BME280;63483;47.384;8.860;2022-11-15T05:35:58;94238.13;;;3.12;52.02
74921;BME280;63483;47.384;8.860;2022-11-15T05:38:25;94246.72;;;3.13;52.13
74921;BME280;63483;47.384;8.860;2022-11-15T05:40:51;94244.78;;;3.15;52.33
74921;BME280;63483;47.384;8.860;2022-11-15T05:43:16;94244.00;;;3.14;52.20
74921;BME280;63483;47.384;8.860;2022-11-15T05:45:42;94243.16;;;3.14;52.24
74921;BME280;63483;47.384;8.860;2022-11-15T05:48:08;94236.38;;;3.13;52.12
74921;BME280;63483;47.384;8.860;2022-11-15T05:50:36;94236.38;;;3.13;51.98
74921;BME280;63483;47.384;8.860;2022-11-15T05:53:04;94237.97;;;3.14;52.08
74921;BME280;63483;47.384;8.860;2022-11-15T05:55:30;94237.03;;;3.15;51.87
74921;BME280;63483;47.384;8.860;2022-11-15T05:57:55;94229.25;;;3.15;51.80
74921;BME280;63483;47.384;8.860;2022-11-15T06:00:21;94224.09;;;3.15;51.92
74921;BME280;63483;47.384;8.860;2022-11-15T06:02:46;94233.78;;;3.13;51.75
74921;BME280;63483;47.384;8.860;2022-11-15T06:05:11;94233.09;;;3.11;51.68
74921;BME280;63483;47.384;8.860;2022-11-15T06:07:37;94229.84;;;3.09;51.82
74921;BME280;63483;47.384;8.860;2022-11-15T06:10:02;94234.63;;;3.03;51.74
74921;BME280;63483;47.384;8.860;2022-11-15T06:12:28;94235.59;;;3.02;51.81
74921;BME280;63483;47.384;8.860;2022-11-15T06:14:53;94230.41;;;3.02;51.81
74921;BME280;63483;47.384;8.860;2022-11-15T06:17:18;94240.09;;;3.00;51.78
74921;BME280;63483;47.384;8.860;2022-11-15T06:19:44;94223.09;;;2.98;51.99
74921;BME280;63483;47.384;8.860;2022-11-15T06:22:09;94230.72;;;2.99;52.00
74921;BME280;63483;47.384;8.860;2022-11-15T06:24:34;94230.72;;;2.99;51.73
74921;BME280;63483;47.384;8.860;2022-11-15T06:27:00;94225.53;;;2.99;51.84
74921;BME280;63483;47.384;8.860;2022-11-15T06:29:25;94227.09;;;2.35;50.86
74921;BME280;63483;47.384;8.860;2022-11-15T06:31:50;94228.50;;;1.71;47.94
74921;BME280;63483;47.384;8.860;2022-11-15T06:34:16;94228.47;;;1.01;49.44
74921;BME280;63483;47.384;8.860;2022-11-15T06:36:41;94225.16;;;0.48;49.23
74921;BME280;63483;47.384;8.860;2022-11-15T06:39:06;94228.91;;;0.34;49.27
74921;BME280;63483;47.384;8.860;2022-11-15T06:41:35;94235.03;;;0.01;48.33
74921;BME280;63483;47.384;8.860;2022-11-15T06:44:01;94219.00;;;-0.24;48.46
74921;BME280;63483;47.384;8.860;2022-11-15T06:46:26;94219.66;;;-0.43;47.62
74921;BME280;63483;47.384;8.860;2022-11-15T06:48:52;94224.84;;;0.20;52.46
74921;BME280;63483;47.384;8.860;2022-11-15T06:51:17;94225.63;;;-0.42;58.79
74921;BME280;63483;47.384;8.860;2022-11-15T06:53:43;94229.97;;;-0.87;54.31
74921;BME280;63483;47.384;8.860;2022-11-15T06:56:08;94232.66;;;-1.22;53.56
74921;BME280;63483;47.384;8.860;2022-11-15T06:58:34;94225.28;;;-1.49;53.27
74921;BME280;63483;47.384;8.860;2022-11-15T07:01:06;94223.66;;;-1.73;53.61
74921;BME280;63483;47.384;8.860;2022-11-15T07:03:35;94224.19;;;-1.92;54.05
74921;BME280;63483;47.384;8.860;2022-11-15T07:06:01;94224.84;;;-2.01;54.10
74921;BME280;63483;47.384;8.860;2022-11-15T07:08:28;94223.59;;;-2.07;54.08
74921;BME280;63483;47.384;8.860;2022-11-15T07:10:57;94223.78;;;-2.10;54.31
74921;BME280;63483;47.384;8.860;2022-11-15T07:13:27;94221.22;;;-2.10;53.75
74921;BME280;63483;47.384;8.860;2022-11-15T07:15:53;94217.25;;;-2.14;53.00
74921;BME280;63483;47.384;8.860;2022-11-15T07:18:18;94212.59;;;-2.09;53.42
74921;BME280;63483;47.384;8.860;2022-11-15T07:20:44;94217.88;;;-1.99;52.00
74921;BME280;63483;47.384;8.860;2022-11-15T07:23:09;94216.00;;;-1.97;51.64
74921;BME280;63483;47.384;8.860;2022-11-15T07:25:34;94211.03;;;-1.87;50.95
74921;BME280;63483;47.384;8.860;2022-11-15T07:28:00;94211.50;;;-1.71;51.64
74921;BME280;63483;47.384;8.860;2022-11-15T07:30:27;94223.06;;;-1.65;50.88
74921;BME280;63483;47.384;8.860;2022-11-15T07:32:59;94217.13;;;-1.32;49.55
74921;BME280;63483;47.384;8.860;2022-11-15T07:35:26;94216.19;;;-0.86;49.25
74921;BME280;63483;47.384;8.860;2022-11-15T07:38:00;94198.34;;;-0.34;53.44
74921;BME280;63483;47.384;8.860;2022-11-15T07:40:27;94205.69;;;0.13;53.99
74921;BME280;63483;47.384;8.860;2022-11-15T07:43:02;94209.44;;;0.51;55.58
74921;BME280;63483;47.384;8.860;2022-11-15T07:45:28;94209.38;;;0.72;55.92
74921;BME280;63483;47.384;8.860;2022-11-15T07:47:54;94211.84;;;-0.41;58.68
74921;BME280;63483;47.384;8.860;2022-11-15T07:50:21;94210.66;;;-1.04;56.60
74921;BME280;63483;47.384;8.860;2022-11-15T07:52:46;94209.88;;;-1.27;57.43
74921;BME280;63483;47.384;8.860;2022-11-15T07:55:12;94207.31;;;-1.49;56.43
74921;BME280;63483;47.384;8.860;2022-11-15T07:57:37;94207.53;;;-1.75;56.13
74921;BME280;63483;47.384;8.860;2022-11-15T08:00:06;94211.47;;;-1.94;55.73
74921;BME280;63483;47.384;8.860;2022-11-15T08:02:32;94202.94;;;-2.05;56.37
74921;BME280;63483;47.384;8.860;2022-11-15T08:04:57;94211.91;;;-2.00;55.80
74921;BME280;63483;47.384;8.860;2022-11-15T08:07:22;94207.72;;;-2.01;55.47
74921;BME280;63483;47.384;8.860;2022-11-15T08:09:48;94202.47;;;-1.99;56.10
74921;BME280;63483;47.384;8.860;2022-11-15T08:12:14;94201.06;;;-2.03;55.23
74921;BME280;63483;47.384;8.860;2022-11-15T08:14:39;94201.63;;;-2.00;54.40
74921;BME280;63483;47.384;8.860;2022-11-15T08:17:05;94199.81;;;-1.98;54.37
74921;BME280;63483;47.384;8.860;2022-11-15T08:19:30;94198.63;;;-2.05;53.21
74921;BME280;63483;47.384;8.860;2022-11-15T08:21:55;94195.63;;;-1.87;52.38
74921;BME280;63483;47.384;8.860;2022-11-15T08:24:21;94195.63;;;-1.65;52.07
74921;BME280;63483;47.384;8.860;2022-11-15T08:26:46;94184.88;;;-1.13;50.62
74921;BME280;63483;47.384;8.860;2022-11-15T08:29:12;94191.56;;;-0.67;54.21
74921;BME280;63483;47.384;8.860;2022-11-15T08:31:37;94171.31;;;-0.28;53.98
74921;BME280;63483;47.384;8.860;2022-11-15T08:34:04;94179.47;;;0.19;58.02
74921;BME280;63483;47.384;8.860;2022-11-15T08:36:30;94171.63;;;0.62;57.94
74921;BME280;63483;47.384;8.860;2022-11-15T08:38:55;94180.13;;;0.93;56.57
74921;BME280;63483;47.384;8.860;2022-11-15T08:41:32;94170.22;;;0.88;61.76
74921;BME280;63483;47.384;8.860;2022-11-15T08:43:58;94173.44;;;-0.12;58.98
74921;BME280;63483;47.384;8.860;2022-11-15T08:46:23;94165.44;;;-0.51;58.68
74921;BME280;63483;47.384;8.860;2022-11-15T08:48:49;94171.06;;;-0.90;58.58
74921;BME280;63483;47.384;8.860;2022-11-15T08:51:14;94179.50;;;-1.10;58.25
74921;BME280;63483;47.384;8.860;2022-11-15T08:53:41;94177.16;;;-1.25;58.90
74921;BME280;63483;47.384;8.860;2022-11-15T08:56:09;94173.78;;;-1.37;59.02
74921;BME280;63483;47.384;8.860;2022-11-15T08:58:35;94167.13;;;-1.39;58.78
74921;BME280;63483;47.384;8.860;2022-11-15T09:01:01;94169.00;;;-1.41;58.30
74921;BME280;63483;47.384;8.860;2022-11-15T09:03:26;94163.75;;;-1.40;58.90
74921;BME280;63483;47.384;8.860;2022-11-15T09:05:59;94165.97;;;-1.35;58.18
74921;BME280;63483;47.384;8.860;2022-11-15T09:08:29;94167.38;;;-1.31;58.29
74921;BME280;63483;47.384;8.860;2022-11-15T09:10:55;94165.03;;;-1.23;57.48
74921;BME280;63483;47.384;8.860;2022-11-15T09:13:20;94154.50;;;-0.97;58.35
74921;BME280;63483;47.384;8.860;2022-11-15T09:15:45;94159.25;;;-0.06;61.62
74921;BME280;63483;47.384;8.860;2022-11-15T09:18:11;94162.00;;;0.64;62.05
74921;BME280;63483;47.384;8.860;2022-11-15T09:20:36;94161.03;;;1.15;59.54
74921;BME280;63483;47.384;8.860;2022-11-15T09:23:02;94162.19;;;1.61;60.76
74921;BME280;63483;47.384;8.860;2022-11-15T09:25:29;94159.03;;;1.97;60.16
74921;BME280;63483;47.384;8.860;2022-11-15T09:27:54;94163.47;;;2.24;59.49
74921;BME280;63483;47.384;8.860;2022-11-15T09:30:20;94166.09;;;2.52;59.29
74921;BME280;63483;47.384;8.860;2022-11-15T09:32:46;94163.81;;;2.77;58.42
74921;BME280;63483;47.384;8.860;2022-11-15T09:35:11;94162.75;;;2.97;58.04
74921;BME280;63483;47.384;8.860;2022-11-15T09:37:36;94166.84;;;3.18;58.66
74921;BME280;63483;47.384;8.860;2022-11-15T09:40:03;94168.69;;;3.35;58.66
74921;BME280;63483;47.384;8.860;2022-11-15T09:45:32;94162.19;;;3.67;58.42
74921;BME280;63483;47.384;8.860;2022-11-15T09:48:31;94159.06;;;3.82;58.85
74921;BME280;63483;47.384;8.860;2022-11-15T09:50:59;94161.41;;;3.93;58.54
74921;BME280;63483;47.384;8.860;2022-11-15T09:53:49;94170.94;;;4.11;57.81
74921;BME280;63483;47.384;8.860;2022-11-15T09:56:22;94160.00;;;4.25;57.94
74921;BME280;63483;47.384;8.860;2022-11-15T10:02:03;94152.38;;;4.50;58.35
74921;BME280;63483;47.384;8.860;2022-11-15T10:04:33;94150.16;;;4.63;57.09
74921;BME280;63483;47.384;8.860;2022-11-15T10:07:06;94159.47;;;4.74;55.68
74921;BME280;63483;47.384;8.860;2022-11-15T10:12:12;94160.41;;;4.99;55.47
74921;BME280;63483;47.384;8.860;2022-11-15T10:14:39;94160.75;;;5.04;54.18
74921;BME280;63483;47.384;8.860;2022-11-15T10:19:47;94157.88;;;5.24;52.24
74921;BME280;63483;47.384;8.860;2022-11-15T10:22:26;94156.13;;;5.33;51.45
74921;BME280;63483;47.384;8.860;2022-11-15T10:25:06;94151.28;;;5.38;51.43
74921;BME280;63483;47.384;8.860;2022-11-15T10:27:36;94147.88;;;5.45;50.76
74921;BME280;63483;47.384;8.860;2022-11-15T10:30:04;94133.28;;;5.53;50.68
74921;BME280;63483;47.384;8.860;2022-11-15T10:32:33;94125.78;;;5.58;50.62
74921;BME280;63483;47.384;8.860;2022-11-15T10:35:19;94135.53;;;5.64;48.97
74921;BME280;63483;47.384;8.860;2022-11-15T10:37:45;94124.53;;;5.70;49.47
74921;BME280;63483;47.384;8.860;2022-11-15T10:40:20;94127.91;;;5.79;49.51
74921;BME280;63483;47.384;8.860;2022-11-15T10:42:46;94131.66;;;5.85;48.88
74921;BME280;63483;47.384;8.860;2022-11-15T10:45:30;94119.63;;;5.92;48.11
74921;BME280;63483;47.384;8.860;2022-11-15T10:48:20;94122.56;;;5.97;47.68
74921;BME280;63483;47.384;8.860;2022-11-15T10:50:47;94130.66;;;6.02;47.85
74921;BME280;63483;47.384;8.860;2022-11-15T10:53:23;94122.53;;;6.05;47.85
74921;BME280;63483;47.384;8.860;2022-11-15T10:55:51;94122.19;;;6.08;46.91
74921;BME280;63483;47.384;8.860;2022-11-15T10:58:41;94125.78;;;6.07;47.41
74921;BME280;63483;47.384;8.860;2022-11-15T11:01:14;94122.50;;;6.22;51.02
74921;BME280;63483;47.384;8.860;2022-11-15T11:03:41;94133.88;;;6.29;48.87
74921;BME280;63483;47.384;8.860;2022-11-15T11:08:35;94130.31;;;6.38;48.78
74921;BME280;63483;47.384;8.860;2022-11-15T11:11:03;94127.06;;;6.44;47.54
74921;BME280;63483;47.384;8.860;2022-11-15T11:13:34;94129.31;;;6.47;47.13
74921;BME280;63483;47.384;8.860;2022-11-15T11:16:20;94118.59;;;6.50;46.95
74921;BME280;63483;47.384;8.860;2022-11-15T11:19:01;94117.41;;;6.53;46.51
74921;BME280;63483;47.384;8.860;2022-11-15T11:24:37;94128.78;;;6.60;46.84
74921;BME280;63483;47.384;8.860;2022-11-15T11:30:17;94107.94;;;6.68;45.53
74921;BME280;63483;47.384;8.860;2022-11-15T11:33:01;94104.81;;;6.73;46.07
74921;BME280;63483;47.384;8.860;2022-11-15T11:35:41;94105.16;;;6.78;46.02
74921;BME280;63483;47.384;8.860;2022-11-15T11:41:12;94097.47;;;6.85;45.04
74921;BME280;63483;47.384;8.860;2022-11-15T11:49:46;94076.25;;;6.96;47.00
74921;BME280;63483;47.384;8.860;2022-11-15T11:52:23;94077.38;;;7.02;47.14
74921;BME280;63483;47.384;8.860;2022-11-15T11:57:32;94062.81;;;7.08;47.23
74921;BME280;63483;47.384;8.860;2022-11-15T12:00:12;94068.34;;;7.13;47.04
74921;BME280;63483;47.384;8.860;2022-11-15T12:02:43;94067.53;;;7.12;45.87
74921;BME280;63483;47.384;8.860;2022-11-15T12:08:20;94050.88;;;7.21;45.22
74921;BME280;63483;47.384;8.860;2022-11-15T12:10:56;94043.69;;;7.23;45.36
74921;BME280;63483;47.384;8.860;2022-11-15T12:13:25;94024.13;;;7.28;45.49
74921;BME280;63483;47.384;8.860;2022-11-15T12:16:05;94025.75;;;7.29;45.60
74921;BME280;63483;47.384;8.860;2022-11-15T12:18:32;94020.81;;;7.34;46.78
74921;BME280;63483;47.384;8.860;2022-11-15T12:21:02;94007.09;;;7.40;45.88
74921;BME280;63483;47.384;8.860;2022-11-15T12:23:38;94007.09;;;7.40;44.78
74921;BME280;63483;47.384;8.860;2022-11-15T12:26:14;94005.94;;;7.43;44.88
74921;BME280;63483;47.384;8.860;2022-11-15T12:28:50;94001.34;;;7.45;44.54
74921;BME280;63483;47.384;8.860;2022-11-15T12:31:24;93992.03;;;7.50;45.03
74921;BME280;63483;47.384;8.860;2022-11-15T12:33:57;93995.72;;;7.56;45.09
74921;BME280;63483;47.384;8.860;2022-11-15T12:38:59;93984.25;;;7.65;44.39
74921;BME280;63483;47.384;8.860;2022-11-15T12:41:31;93983.09;;;7.68;45.36
74921;BME280;63483;47.384;8.860;2022-11-15T12:43:57;93973.13;;;7.71;45.43
74921;BME280;63483;47.384;8.860;2022-11-15T12:49:00;93957.59;;;7.78;45.87
74921;BME280;63483;47.384;8.860;2022-11-15T13:00:00;93937.44;;;7.87;46.84
74921;BME280;63483;47.384;8.860;2022-11-15T13:22:50;93911.72;;;8.14;47.19
74921;BME280;63483;47.384;8.860;2022-11-15T13:27:48;93903.50;;;8.17;47.61
74921;BME280;63483;47.384;8.860;2022-11-15T13:30:19;93898.38;;;8.23;47.98
74921;BME280;63483;47.384;8.860;2022-11-15T13:32:45;93889.56;;;8.24;48.11
74921;BME280;63483;47.384;8.860;2022-11-15T13:35:20;93885.78;;;8.27;48.95
74921;BME280;63483;47.384;8.860;2022-11-15T13:37:46;93882.00;;;8.30;48.82
74921;BME280;63483;47.384;8.860;2022-11-15T13:42:49;93878.38;;;8.31;49.80
74921;BME280;63483;47.384;8.860;2022-11-15T13:45:17;93875.94;;;8.29;50.29
74921;BME280;63483;47.384;8.860;2022-11-15T13:47:43;93871.56;;;8.30;50.37
74921;BME280;63483;47.384;8.860;2022-11-15T13:50:12;93877.56;;;8.30;50.21
74921;BME280;63483;47.384;8.860;2022-11-15T13:52:39;93863.59;;;8.38;47.98
74921;BME280;63483;47.384;8.860;2022-11-15T13:55:19;93863.19;;;8.34;47.77
74921;BME280;63483;47.384;8.860;2022-11-15T13:57:50;93862.38;;;8.34;48.21
74921;BME280;63483;47.384;8.860;2022-11-15T14:02:51;93846.53;;;8.35;48.33
74921;BME280;63483;47.384;8.860;2022-11-15T14:05:22;93846.78;;;8.40;48.42
74921;BME280;63483;47.384;8.860;2022-11-15T14:07:58;93839.38;;;8.44;48.17
74921;BME280;63483;47.384;8.860;2022-11-15T14:10:31;93839.03;;;8.47;47.53
74921;BME280;63483;47.384;8.860;2022-11-15T14:12:57;93833.16;;;8.45;47.78
74921;BME280;63483;47.384;8.860;2022-11-15T14:15:27;93835.59;;;8.46;47.89
74921;BME280;63483;47.384;8.860;2022-11-15T14:17:53;93834.78;;;8.46;48.67
74921;BME280;63483;47.384;8.860;2022-11-15T14:20:27;93833.63;;;8.49;49.11
74921;BME280;63483;47.384;8.860;2022-11-15T14:22:55;93825.34;;;8.45;48.51
74921;BME280;63483;47.384;8.860;2022-11-15T14:25:31;93823.19;;;8.49;48.46
74921;BME280;63483;47.384;8.860;2022-11-15T14:30:34;93824.59;;;8.51;48.44
74921;BME280;63483;47.384;8.860;2022-11-15T14:32:59;93823.97;;;8.49;48.34
74921;BME280;63483;47.384;8.860;2022-11-15T14:35:25;93818.75;;;8.49;48.33
74921;BME280;63483;47.384;8.860;2022-11-15T14:37:50;93823.19;;;8.49;48.65
74921;BME280;63483;47.384;8.860;2022-11-15T14:40:18;93812.75;;;8.49;49.24
74921;BME280;63483;47.384;8.860;2022-11-15T14:42:46;93811.91;;;8.48;49.49
74921;BME280;63483;47.384;8.860;2022-11-15T14:45:20;93817.13;;;8.48;49.34
74921;BME280;63483;47.384;8.860;2022-11-15T14:47:46;93811.91;;;8.48;49.52
74921;BME280;63483;47.384;8.860;2022-11-15T14:50:16;93818.75;;;8.49;49.84
74921;BME280;63483;47.384;8.860;2022-11-15T14:52:42;93807.06;;;8.45;49.82
74921;BME280;63483;47.384;8.860;2022-11-15T14:55:18;93814.09;;;8.44;49.48
74921;BME280;63483;47.384;8.860;2022-11-15T14:57:45;93809.06;;;8.43;49.86
74921;BME280;63483;47.384;8.860;2022-11-15T15:00:12;93801.25;;;8.43;49.91
74921;BME280;63483;47.384;8.860;2022-11-15T15:02:37;93805.44;;;8.44;50.21
74921;BME280;63483;47.384;8.860;2022-11-15T15:07:54;93802.03;;;8.43;50.28
74921;BME280;63483;47.384;8.860;2022-11-15T15:10:20;93801.84;;;8.45;50.44